Time;durP1;ratioP1;P1;durP2;ratioP2;P2;SDS_P1;SDS_P2;PMS_P1;PMS_P2;Temp;Humidity;BMP_temperature;BMP_pressure;BME280_temperature;BME280_humidity;BME280_pressure;Samples;Min_cycle;Max_cycle;Signal;HPM_P1;HPM_P2
2023/07/02 00:02:22;;;;;;;;;42.33;34.67;;;;;18.45;53.43;100935.81;4961301;28;46859;-75
2023/07/02 00:04:48;;;;;;;;;42.00;34.67;;;;;18.29;54.49;100930.56;4979323;28;45449;-75
2023/07/02 00:07:16;;;;;;;;;38.00;31.00;;;;;18.08;54.31;100895.88;4959810;28;45426;-75
2023/07/02 00:09:42;;;;;;;;;38.33;32.67;;;;;18.31;54.88;100949.25;4961844;28;45394;-78
2023/07/02 00:12:08;;;;;;;;;43.00;33.67;;;;;18.15;54.08;100937.78;4962447;28;47739;-76
2023/07/02 00:14:33;;;;;;;;;50.33;36.67;;;;;17.96;56.05;100914.66;4977019;28;45441;-77
2023/07/02 00:16:59;;;;;;;;;40.67;32.33;;;;;18.17;54.28;100951.13;4980391;28;45284;-77
2023/07/02 00:19:24;;;;;;;;;43.67;33.00;;;;;18.08;54.39;100944.03;4977551;28;45415;-78
2023/07/02 00:21:50;;;;;;;;;44.33;35.00;;;;;17.85;55.24;100907.56;4980218;28;45467;-77
2023/07/02 00:24:15;;;;;;;;;44.33;33.00;;;;;18.03;55.64;100954.72;4974299;28;45346;-79
2023/07/02 00:26:42;;;;;;;;;43.67;33.33;;;;;17.82;56.24;100933.44;4980093;28;45485;-79
2023/07/02 00:29:09;;;;;;;;;41.67;32.33;;;;;17.86;55.86;100935.19;4975110;28;45330;-77
2023/07/02 00:31:35;;;;;;;;;41.00;31.67;;;;;17.81;54.99;100937.91;4979866;28;45442;-77
2023/07/02 00:34:03;;;;;;;;;40.00;32.33;;;;;17.62;55.63;100912.06;4974188;28;45712;-75
2023/07/02 00:36:29;;;;;;;;;42.00;34.33;;;;;17.82;56.72;100952.16;4979513;28;45326;-77
2023/07/02 00:38:55;;;;;;;;;46.33;35.00;;;;;17.72;56.05;100942.34;4976644;28;45574;-77
2023/07/02 00:41:21;;;;;;;;;41.33;33.00;;;;;17.71;55.91;100946.78;4979785;28;46316;-76
2023/07/02 00:43:46;;;;;;;;;50.67;36.33;;;;;17.66;56.52;100941.44;4974231;28;45525;-78
2023/07/02 00:46:22;;;;;;;;;44.67;34.00;;;;;17.53;56.94;100923.69;4962586;28;46001;-76
2023/07/02 00:48:54;;;;;;;;;45.33;33.33;;;;;17.53;58.06;100934.38;4975587;28;45448;-76
2023/07/02 00:51:27;;;;;;;;;43.33;35.67;;;;;17.36;56.53;100920.13;4979410;28;46702;-75
2023/07/02 00:53:56;;;;;;;;;38.00;32.00;;;;;17.43;57.22;100940.63;4976587;28;45387;-78
2023/07/02 00:56:22;;;;;;;;;41.67;34.33;;;;;17.37;57.76;100935.28;4979685;28;45311;-77
2023/07/02 00:58:50;;;;;;;;;37.00;32.67;;;;;17.34;57.52;100951.34;4977456;28;45426;-76
2023/07/02 01:01:17;;;;;;;;;36.33;29.67;;;;;17.00;57.39;100892.59;4979417;28;45348;-77
2023/07/02 01:03:55;;;;;;;;;43.33;34.67;;;;;17.05;57.53;100916.59;4977744;28;45444;-76
2023/07/02 01:06:27;;;;;;;;;41.67;33.33;;;;;17.05;57.63;100921.94;4979636;28;45333;-76
2023/07/02 01:08:55;;;;;;;;;43.33;34.67;;;;;17.06;59.24;100939.78;4975142;28;45685;-76
2023/07/02 01:11:25;;;;;;;;;43.75;32.25;;;;;17.13;59.01;100954.88;4979348;28;46359;-77
2023/07/02 01:13:54;;;;;;;;;39.00;30.75;;;;;16.92;58.01;100923.75;4976407;28;45366;-76
2023/07/02 01:16:21;;;;;;;;;40.25;32.00;;;;;16.98;58.97;100946.00;4959830;28;45366;-76
2023/07/02 01:18:48;;;;;;;;;34.75;31.25;;;;;16.95;58.38;100946.00;4976870;28;45452;-77
2023/07/02 01:21:14;;;;;;;;;41.67;32.67;;;;;16.80;57.55;100918.38;4977971;28;46409;-77
2023/07/02 01:23:39;;;;;;;;;44.75;33.00;;;;;16.82;59.66;100943.31;4977542;28;45803;-77
2023/07/02 01:26:05;;;;;;;;;41.75;32.75;;;;;16.85;59.51;100949.53;4961507;28;45267;-78
2023/07/02 01:28:38;;;;;;;;;45.00;32.00;;;;;16.80;58.38;100953.09;4975654;28;45409;-78
2023/07/02 01:31:04;;;;;;;;;42.25;32.50;;;;;16.66;59.83;100932.56;4974333;28;45557;-79
2023/07/02 01:33:29;;;;;;;;;46.25;33.75;;;;;16.42;59.57;100909.41;4973333;28;46228;-76
2023/07/02 01:35:55;;;;;;;;;31.67;27.00;;;;;16.70;60.21;100963.72;4979002;28;45489;-77
2023/07/02 01:38:21;;;;;;;;;44.67;34.00;;;;;16.52;60.85;100943.25;4955124;28;46053;-76
2023/07/02 01:40:46;;;;;;;;;38.25;32.00;;;;;16.70;59.85;100977.06;4978982;28;45661;-76
2023/07/02 01:43:12;;;;;;;;;42.75;34.00;;;;;16.63;60.96;100966.38;4973309;28;45366;-76
2023/07/02 01:45:37;;;;;;;;;39.75;34.25;;;;;16.46;60.83;100943.19;4973579;28;45387;-77
2023/07/02 01:48:03;;;;;;;;;48.50;33.50;;;;;16.58;61.11;100969.06;4959265;28;45589;-76
2023/07/02 01:50:28;;;;;;;;;47.75;34.25;;;;;16.59;62.58;100967.25;4982133;28;45406;-76
2023/07/02 01:52:54;;;;;;;;;47.25;37.50;;;;;16.47;60.57;100957.47;4979448;28;45373;-75
2023/07/02 01:55:19;;;;;;;;;52.25;39.75;;;;;16.54;62.17;100984.13;4980967;28;45401;-76
2023/07/02 01:57:44;;;;;;;;;51.25;41.75;;;;;16.48;60.56;100967.22;4961470;28;45997;-76
2023/07/02 02:00:10;;;;;;;;;52.50;40.25;;;;;16.48;62.41;100972.56;4980803;28;46191;-76
2023/07/02 02:02:36;;;;;;;;;51.50;39.25;;;;;16.30;61.49;100946.75;4980600;28;45329;-76
2023/07/02 02:05:02;;;;;;;;;50.75;40.50;;;;;16.45;61.57;100984.13;4949541;28;47553;-76
2023/07/02 02:07:27;;;;;;;;;47.50;37.00;;;;;16.21;61.75;100941.34;4981098;28;45442;-76
2023/07/02 02:09:52;;;;;;;;;52.25;39.75;;;;;16.42;62.36;100980.56;4974553;28;48081;-77
2023/07/02 02:12:18;;;;;;;;;46.00;37.25;;;;;16.30;63.03;100960.06;4981410;28;45231;-76
2023/07/02 02:14:43;;;;;;;;;41.25;32.25;;;;;16.04;61.85;100922.63;4979964;28;45217;-75
2023/07/02 02:17:08;;;;;;;;;40.75;32.75;;;;;16.20;63.02;100945.78;4981971;28;45228;-75
2023/07/02 02:19:34;;;;;;;;;40.00;33.00;;;;;16.29;61.29;100961.81;4963007;28;47918;-75
2023/07/02 02:21:59;;;;;;;;;45.75;36.50;;;;;16.26;62.34;100961.81;4982048;28;45226;-76
2023/07/02 02:24:24;;;;;;;;;46.25;36.75;;;;;16.17;61.52;100956.47;4973460;28;45804;-76
2023/07/02 02:26:50;;;;;;;;;44.25;36.00;;;;;16.19;62.13;100970.69;4981849;28;45301;-75
2023/07/02 02:29:15;;;;;;;;;46.25;38.75;;;;;16.12;63.36;100952.88;4976484;28;45539;-76
2023/07/02 02:31:40;;;;;;;;;41.75;33.25;;;;;16.11;61.09;100954.66;4981595;28;50485;-75
2023/07/02 02:34:05;;;;;;;;;49.75;40.00;;;;;16.07;62.84;100950.19;4977670;28;45399;-75
2023/07/02 02:36:32;;;;;;;;;49.50;38.25;;;;;16.09;61.44;100955.53;4963830;28;46256;-76
2023/07/02 02:38:57;;;;;;;;;56.00;41.75;;;;;16.14;63.32;100974.22;4959111;28;47128;-76
2023/07/02 02:41:22;;;;;;;;;52.00;38.25;;;;;16.19;63.37;100983.13;4980593;28;45279;-76
2023/07/02 02:43:48;;;;;;;;;39.50;32.25;;;;;15.96;62.37;100949.25;4979392;28;45334;-76
2023/07/02 02:46:20;;;;;;;;;33.50;27.25;;;;;16.13;63.12;100983.97;4981705;28;45300;-75
2023/07/02 02:48:45;;;;;;;;;42.00;34.00;;;;;15.98;61.75;100949.25;4977331;28;46613;-76
2023/07/02 02:51:11;;;;;;;;;44.75;33.25;;;;;15.94;62.66;100952.81;4981307;28;45224;-75
2023/07/02 02:53:36;;;;;;;;;38.25;33.00;;;;;16.01;62.75;100973.28;4974725;28;45394;-75
2023/07/02 02:56:01;;;;;;;;;39.25;29.25;;;;;16.04;62.90;100986.63;4958110;28;45191;-75
2023/07/02 02:58:27;;;;;;;;;35.75;29.75;;;;;16.04;62.58;100986.63;4977854;28;45415;-75
2023/07/02 03:00:53;;;;;;;;;33.75;30.50;;;;;15.77;63.52;100945.63;4980209;28;45481;-75
2023/07/02 03:03:20;;;;;;;;;35.25;31.25;;;;;15.78;63.65;100955.38;4976224;28;45307;-76
2023/07/02 03:05:48;;;;;;;;;37.00;28.75;;;;;15.88;62.29;100970.56;4963380;28;45434;-76
2023/07/02 03:08:13;;;;;;;;;36.50;30.50;;;;;15.81;64.19;100973.16;4977332;28;46247;-75
2023/07/02 03:10:38;;;;;;;;;35.00;29.50;;;;;15.79;63.78;100967.81;4980992;28;45235;-75
2023/07/02 03:13:04;;;;;;;;;34.50;29.00;;;;;15.92;63.27;100991.91;4977689;28;45172;-75
2023/07/02 03:15:29;;;;;;;;;38.00;30.25;;;;;15.88;63.73;100989.22;4980921;28;45436;-75
2023/07/02 03:17:54;;;;;;;;;34.75;29.75;;;;;15.79;64.75;100974.94;4979062;28;45279;-75
2023/07/02 03:20:20;;;;;;;;;40.25;32.75;;;;;15.80;65.20;100985.63;4963191;28;46800;-76
2023/07/02 03:22:45;;;;;;;;;36.50;31.25;;;;;15.77;63.49;100990.94;4979588;28;45398;-75
2023/07/02 03:25:10;;;;;;;;;32.00;30.00;;;;;15.77;64.32;100998.94;4980275;28;45313;-75
2023/07/02 03:27:36;;;;;;;;;37.75;31.25;;;;;15.72;65.01;100989.13;4978954;28;46372;-76
2023/07/02 03:30:03;;;;;;;;;42.75;34.00;;;;;15.65;64.25;100978.34;4963290;28;45300;-75
2023/07/02 03:32:28;;;;;;;;;39.75;31.75;;;;;15.64;65.62;100981.03;4962552;28;45287;-75
2023/07/02 03:34:54;;;;;;;;;37.75;31.25;;;;;15.75;65.00;101010.47;4977862;28;45321;-75
2023/07/02 03:37:19;;;;;;;;;40.25;31.00;;;;;15.59;64.61;100988.97;4980515;28;45319;-76
2023/07/02 03:39:45;;;;;;;;;43.25;30.00;;;;;15.53;64.22;100985.41;4977988;28;45416;-76
2023/07/02 03:42:10;;;;;;;;;29.75;27.00;;;;;15.71;65.97;101024.63;4963381;28;45437;-75
2023/07/02 03:44:35;;;;;;;;;29.50;25.75;;;;;15.51;66.21;101000.47;4971845;28;46359;-75
2023/07/02 03:47:00;;;;;;;;;38.25;30.25;;;;;15.50;65.41;100996.03;4980321;28;50479;-76
2023/07/02 03:49:26;;;;;;;;;37.75;30.50;;;;;15.53;65.78;101014.69;4976723;28;45464;-76
2023/07/02 03:51:52;;;;;;;;;44.25;31.75;;;;;15.43;65.55;101005.72;4963131;28;45342;-75
2023/07/02 03:54:17;;;;;;;;;37.25;31.25;;;;;15.43;66.28;101003.06;4977673;28;45188;-75
2023/07/02 03:56:43;;;;;;;;;33.00;26.50;;;;;15.49;66.89;101018.22;4979813;28;45443;-75
2023/07/02 03:59:08;;;;;;;;;42.50;32.00;;;;;15.56;66.61;101036.94;4953916;28;45552;-76
2023/07/02 04:01:33;;;;;;;;;34.75;30.50;;;;;15.35;65.64;100991.50;4980433;28;45454;-76
2023/07/02 04:03:59;;;;;;;;;37.00;29.75;;;;;15.50;66.27;101022.69;4957586;28;46657;-75
2023/07/02 04:06:24;;;;;;;;;39.25;32.00;;;;;15.45;66.45;101019.97;4980051;28;45403;-75
2023/07/02 04:08:49;;;;;;;;;28.25;27.25;;;;;15.59;67.14;101038.72;4977202;28;45428;-74
2023/07/02 04:11:15;;;;;;;;;34.00;28.75;;;;;15.39;65.91;100998.59;4973824;28;45263;-75
2023/07/02 04:13:41;;;;;;;;;31.75;25.00;;;;;15.62;64.14;101036.97;4977701;28;45508;-76
2023/07/02 04:16:06;;;;;;;;;31.75;28.50;;;;;15.47;65.78;101020.88;4979708;28;45378;-75
2023/07/02 04:18:32;;;;;;;;;25.50;22.75;;;;;15.54;66.31;101030.69;4977063;28;45267;-76
2023/07/02 04:20:58;;;;;;;;;41.25;30.00;;;;;15.48;66.88;101022.66;4978697;28;45486;-75
2023/07/02 04:23:24;;;;;;;;;31.75;26.50;;;;;15.51;66.51;101021.78;4977798;28;45477;-74
2023/07/02 04:25:50;;;;;;;;;32.00;26.50;;;;;15.62;66.09;101047.63;4973636;28;46340;-76
2023/07/02 04:28:16;;;;;;;;;38.75;29.00;;;;;15.52;66.35;101028.91;4957008;28;45267;-76
2023/07/02 04:30:42;;;;;;;;;30.50;27.25;;;;;15.62;66.23;101052.06;4980256;28;45323;-76
2023/07/02 04:33:07;;;;;;;;;34.75;30.00;;;;;15.65;66.12;101047.66;4976876;28;45349;-76
2023/07/02 04:35:34;;;;;;;;;32.25;28.00;;;;;15.57;64.68;101027.16;4979719;28;45479;-76
2023/07/02 04:37:59;;;;;;;;;34.00;27.25;;;;;15.56;66.88;101028.94;4976662;28;45243;-76
2023/07/02 04:40:25;;;;;;;;;35.50;28.00;;;;;15.70;65.29;101052.16;4979759;28;45184;-76
2023/07/02 04:42:57;;;;;;;;;31.00;26.50;;;;;15.62;66.45;101033.41;4959975;28;45895;-76
2023/07/02 04:45:23;;;;;;;;;28.50;23.00;;;;;15.73;66.40;101058.41;4979625;28;46209;-76
2023/07/02 04:47:49;;;;;;;;;32.25;28.50;;;;;15.77;66.04;101065.56;4977808;28;45298;-77
2023/07/02 04:50:14;;;;;;;;;33.75;26.00;;;;;15.60;65.38;101038.75;4975520;28;45601;-75
2023/07/02 04:52:39;;;;;;;;;36.50;29.75;;;;;15.72;66.07;101055.75;4978078;28;45517;-77
2023/07/02 04:55:06;;;;;;;;;35.00;26.50;;;;;15.55;66.03;101024.50;4975277;28;46459;-76
2023/07/02 04:57:31;;;;;;;;;30.67;27.00;;;;;15.80;67.17;101065.56;4960952;28;45503;-76
2023/07/02 04:59:57;;;;;;;;;34.00;25.50;;;;;15.73;66.13;101046.84;4977211;28;45440;-75
2023/07/02 05:02:22;;;;;;;;;34.25;27.75;;;;;15.69;66.40;101031.75;4978943;28;45671;-75
2023/07/02 05:04:48;;;;;;;;;35.25;28.25;;;;;15.71;66.01;101033.53;4975402;28;47143;-76
2023/07/02 05:07:13;;;;;;;;;27.00;19.33;;;;;15.82;64.96;101022.91;4979823;28;45360;-76
2023/07/02 05:09:38;;;;;;;;;34.00;28.00;;;;;15.77;65.15;101004.25;4959962;28;45407;-76
2023/07/02 05:12:04;;;;;;;;;38.00;26.33;;;;;15.96;64.80;101026.56;4961389;28;46330;-76
2023/07/02 05:14:29;;;;;;;;;26.33;26.00;;;;;16.07;65.45;101039.97;4959564;28;47258;-76
2023/07/02 05:16:54;;;;;;;;;30.67;23.33;;;;;16.25;65.20;101060.53;4958665;28;48443;-76
2023/07/02 05:19:20;;;;;;;;;32.67;26.67;;;;;16.27;65.25;101056.97;4976413;28;45397;-77
2023/07/02 05:21:45;;;;;;;;;31.00;27.67;;;;;16.32;65.76;101049.88;4979517;28;45262;-76
2023/07/02 05:24:10;;;;;;;;;28.00;25.67;;;;;16.42;65.63;101053.50;4976738;28;46496;-76
2023/07/02 05:26:36;;;;;;;;;28.67;24.00;;;;;16.53;64.47;101061.53;4979245;28;45546;-76
2023/07/02 05:29:01;;;;;;;;;27.33;24.33;;;;;16.50;64.24;101056.19;4971488;28;45493;-76
2023/07/02 05:31:27;;;;;;;;;23.33;21.67;;;;;16.40;64.64;101023.22;4960880;28;46782;-76
2023/07/02 05:33:53;;;;;;;;;30.00;27.33;;;;;16.69;65.32;101062.47;4973140;28;45417;-75
2023/07/02 05:36:19;;;;;;;;;30.67;25.67;;;;;16.60;64.25;101027.75;4979198;28;45168;-74
2023/07/02 05:38:44;;;;;;;;;30.67;26.00;;;;;16.73;64.95;101050.94;4963730;28;45448;-75
2023/07/02 05:41:09;;;;;;;;;31.67;26.67;;;;;16.68;64.05;101018.88;4978627;28;50977;-76
2023/07/02 05:43:35;;;;;;;;;32.33;24.67;;;;;16.79;65.04;101048.31;4952497;28;47002;-75
2023/07/02 05:46:00;;;;;;;;;29.00;25.00;;;;;16.95;64.00;101059.94;4976889;28;45271;-75
2023/07/02 05:48:26;;;;;;;;;31.33;28.33;;;;;16.95;64.16;101046.59;4975851;28;45355;-75
2023/07/02 05:50:51;;;;;;;;;26.67;25.00;;;;;16.99;63.87;101048.34;4957657;28;45662;-76
2023/07/02 05:53:17;;;;;;;;;28.00;24.67;;;;;17.28;63.59;101088.50;4959351;28;50021;-77
2023/07/02 05:55:42;;;;;;;;;31.00;26.67;;;;;17.03;63.46;101036.81;4977896;28;45220;-76
2023/07/02 05:58:08;;;;;;;;;26.67;21.33;;;;;17.30;63.35;101083.13;4976677;28;45555;-77
2023/07/02 06:00:33;;;;;;;;;30.67;26.00;;;;;17.27;63.50;101067.97;4976925;28;46521;-76
2023/07/02 06:02:58;;;;;;;;;40.00;27.00;;;;;17.49;63.18;101090.28;4974781;28;47149;-76
2023/07/02 06:05:24;;;;;;;;;30.67;26.67;;;;;17.36;62.87;101054.63;4977405;28;48378;-77
2023/07/02 06:07:49;;;;;;;;;31.67;26.67;;;;;17.54;62.90;101076.94;4977362;28;45343;-76
2023/07/02 06:10:15;;;;;;;;;32.67;24.33;;;;;17.55;62.61;101068.00;4977172;28;45539;-77
2023/07/02 06:12:40;;;;;;;;;27.33;23.33;;;;;17.74;62.55;101084.94;4976779;28;45591;-76
2023/07/02 06:15:06;;;;;;;;;35.33;27.67;;;;;17.68;62.44;101080.47;4978694;28;45398;-77
2023/07/02 06:17:31;;;;;;;;;30.67;25.67;;;;;17.56;62.48;101053.72;4977721;28;45388;-78
2023/07/02 06:19:57;;;;;;;;;33.67;26.67;;;;;17.71;61.83;101069.78;4978097;28;45381;-78
2023/07/02 06:22:23;;;;;;;;;28.00;21.33;;;;;17.95;62.11;101097.41;4976982;28;46837;-78
2023/07/02 06:24:48;;;;;;;;;23.67;22.00;;;;;17.88;61.90;101086.72;4970472;28;45434;-77
2023/07/02 06:27:14;;;;;;;;;26.67;21.67;;;;;17.93;61.89;101097.44;4978915;28;45231;-77
2023/07/02 06:29:39;;;;;;;;;38.00;28.67;;;;;17.88;61.97;101081.38;4954960;28;45784;-80
2023/07/02 06:32:05;;;;;;;;;30.33;26.67;;;;;18.08;61.60;101104.53;4961231;28;46383;-77
2023/07/02 06:34:30;;;;;;;;;33.00;25.33;;;;;18.08;61.67;101101.88;4960368;28;45553;-78
2023/07/02 06:36:55;;;;;;;;;28.33;25.00;;;;;18.09;61.24;101093.84;4982198;28;45232;-79
2023/07/02 06:39:20;;;;;;;;;27.00;20.67;;;;;18.01;61.44;101067.97;4976670;28;45207;-77
2023/07/02 06:41:46;;;;;;;;;30.00;23.67;;;;;18.27;61.32;101127.69;4962804;28;45501;-76
2023/07/02 06:44:12;;;;;;;;;34.33;27.33;;;;;18.05;61.08;101084.03;4989045;28;45365;-76
2023/07/02 06:46:37;;;;;;;;;27.33;24.67;;;;;18.22;60.88;101086.66;5000959;28;45218;-77
2023/07/02 06:49:02;;;;;;;;;30.00;25.67;;;;;18.48;60.88;101109.78;4995767;28;45554;-76
2023/07/02 06:51:29;;;;;;;;;26.00;22.00;;;;;18.60;60.42;101115.13;4995801;28;45578;-76
2023/07/02 06:53:54;;;;;;;;;26.33;22.33;;;;;18.75;60.19;101124.91;4981739;28;45393;-76
2023/07/02 06:56:20;;;;;;;;;31.00;25.33;;;;;18.61;60.07;101082.09;4982280;28;45564;-76
2023/07/02 06:58:45;;;;;;;;;32.67;25.67;;;;;19.09;59.82;101130.97;4994817;28;45630;-76
2023/07/02 07:01:10;;;;;;;;;26.67;24.67;;;;;19.23;59.59;101138.94;5000679;28;45985;-76
2023/07/02 07:03:36;;;;;;;;;25.67;21.00;;;;;19.34;59.02;101123.69;4996747;28;45464;-76
2023/07/02 07:06:02;;;;;;;;;33.33;27.67;;;;;19.47;58.52;101134.34;4983245;28;45298;-77
2023/07/02 07:08:27;;;;;;;;;24.67;22.33;;;;;19.52;58.68;101127.13;4997375;28;45571;-76
2023/07/02 07:10:53;;;;;;;;;30.33;25.33;;;;;19.63;58.33;101120.81;5000595;28;46192;-74
2023/07/02 07:13:18;;;;;;;;;24.00;21.00;;;;;19.79;58.42;101097.44;4998068;28;45424;-74
2023/07/02 07:15:44;;;;;;;;;26.67;23.33;;;;;20.17;58.02;101116.78;5000120;28;45318;-77
2023/07/02 07:18:09;;;;;;;;;34.67;27.67;;;;;20.44;56.73;101118.28;4998987;28;45452;-76
2023/07/02 07:20:35;;;;;;;;;31.00;24.67;;;;;20.61;57.04;101123.47;4992108;28;45542;-74
2023/07/02 07:23:03;;;;;;;;;27.33;23.00;;;;;20.72;56.38;101111.69;4998292;28;45373;-74
2023/07/02 07:25:28;;;;;;;;;27.67;24.67;;;;;20.64;56.69;101072.41;4993516;28;45368;-76
2023/07/02 07:27:54;;;;;;;;;30.33;27.33;;;;;20.96;55.67;101101.56;4998637;28;45566;-76
2023/07/02 07:30:22;;;;;;;;;27.33;22.67;;;;;21.16;54.92;101117.41;4996682;28;46362;-76
2023/07/02 07:32:52;;;;;;;;;24.67;19.00;;;;;21.31;54.70;101103.72;4998599;28;45306;-75
2023/07/02 07:35:18;;;;;;;;;29.00;20.00;;;;;21.58;54.15;101129.34;4995617;28;45415;-73
2023/07/02 07:37:44;;;;;;;;;29.00;24.33;;;;;21.45;53.79;101080.25;4997850;28;45467;-78
2023/07/02 07:40:10;;;;;;;;;31.33;25.67;;;;;21.68;52.68;101092.44;4995160;28;45648;-75
2023/07/02 07:42:35;;;;;;;;;29.00;26.00;;;;;21.94;54.04;101107.22;4997989;28;45313;-75
2023/07/02 07:45:03;;;;;;;;;23.33;22.67;;;;;22.17;52.87;101105.00;4994691;28;49166;-76
2023/07/02 07:47:28;;;;;;;;;19.67;18.00;;;;;22.50;51.43;101133.13;4998492;28;45340;-75
2023/07/02 07:49:54;;;;;;;;;30.33;23.33;;;;;22.65;52.47;101123.84;4994249;28;47308;-77
2023/07/02 07:52:20;;;;;;;;;31.33;22.00;;;;;22.70;51.52;101121.94;4990512;28;45356;-77
2023/07/02 07:54:45;;;;;;;;;26.67;23.00;;;;;22.65;50.58;101110.34;4992728;28;45376;-76
2023/07/02 07:57:10;;;;;;;;;26.67;25.00;;;;;22.78;50.67;101111.00;4981194;28;46097;-76
2023/07/02 07:59:35;;;;;;;;;22.67;20.67;;;;;22.93;50.84;101121.44;4997441;28;45433;-76
2023/07/02 08:02:01;;;;;;;;;25.00;25.00;;;;;22.78;49.79;101111.00;4999034;28;49582;-77
2023/07/02 08:04:26;;;;;;;;;27.67;23.67;;;;;22.86;50.67;101111.72;4994947;28;45411;-76
2023/07/02 08:06:51;;;;;;;;;24.00;20.33;;;;;22.86;50.15;101116.25;4981834;28;47117;-77
2023/07/02 08:09:17;;;;;;;;;33.33;26.00;;;;;23.11;49.01;101140.91;4996378;28;45362;-76
2023/07/02 08:11:42;;;;;;;;;26.33;21.67;;;;;23.26;50.07;101137.84;4999221;28;45215;-76
2023/07/02 08:14:07;;;;;;;;;26.67;24.00;;;;;23.33;50.24;101122.38;4996806;28;45335;-74
2023/07/02 08:16:33;;;;;;;;;22.00;21.67;;;;;23.37;48.42;101132.19;4999395;28;46275;-76
2023/07/02 08:18:58;;;;;;;;;27.67;24.00;;;;;23.33;48.61;101112.50;4995640;28;45342;-77
2023/07/02 08:21:23;;;;;;;;;26.00;20.67;;;;;23.52;49.08;101131.81;4999076;28;50569;-78
2023/07/02 08:23:49;;;;;;;;;32.00;24.33;;;;;23.56;47.03;101130.84;4996632;28;45429;-76
2023/07/02 08:26:14;;;;;;;;;32.33;24.67;;;;;23.70;47.07;101140.44;4999337;28;45342;-76
2023/07/02 08:28:40;;;;;;;;;25.67;22.00;;;;;23.83;46.92;101123.00;4979396;28;46981;-76
2023/07/02 08:31:05;;;;;;;;;25.00;22.00;;;;;23.96;47.84;101134.41;4999448;28;45359;-78
2023/07/02 08:33:31;;;;;;;;;24.67;21.67;;;;;23.95;47.02;101129.94;4996338;28;45314;-77
2023/07/02 08:35:57;;;;;;;;;24.67;21.33;;;;;24.08;46.40;101129.53;4971296;28;45657;-78
2023/07/02 08:38:22;;;;;;;;;30.67;23.00;;;;;24.31;46.99;101146.94;4995662;28;46180;-79
2023/07/02 08:40:49;;;;;;;;;25.67;21.00;;;;;24.28;46.18;101122.72;4980758;28;45786;-81
2023/07/02 08:43:14;;;;;;;;;28.67;23.00;;;;;24.39;45.87;101131.41;4995189;28;45310;-78
2023/07/02 08:45:41;;;;;;;;;29.67;24.00;;;;;24.55;46.91;101151.72;4979768;28;46750;-75
2023/07/02 08:48:08;;;;;;;;;25.33;20.67;;;;;24.44;43.86;101124.09;4995220;28;46219;-76
2023/07/02 08:50:33;;;;;;;;;26.00;24.00;;;;;24.61;44.68;101147.06;4996326;28;45452;-75
2023/07/02 08:52:58;;;;;;;;;24.67;22.33;;;;;24.62;45.30;101136.22;4989865;28;45863;-75
2023/07/02 08:55:24;;;;;;;;;21.67;21.67;;;;;24.62;45.28;101138.94;4980897;28;48195;-76
2023/07/02 08:57:52;;;;;;;;;25.33;22.00;;;;;24.74;43.98;101119.66;4991286;28;46313;-76
2023/07/02 09:00:18;;;;;;;;;22.33;19.67;;;;;25.25;44.17;101134.38;4994998;28;45428;-75
2023/07/02 09:02:44;;;;;;;;;25.67;23.33;;;;;25.54;44.45;101128.00;4979275;28;45339;-75
2023/07/02 09:05:10;;;;;;;;;28.33;21.33;;;;;25.73;42.53;101122.88;4998710;28;45336;-75
2023/07/02 09:07:49;;;;;;;;;25.00;20.00;;;;;25.83;43.89;101129.81;4998138;28;46546;-76
2023/07/02 09:10:28;;;;;;;;;20.00;16.33;;;;;25.75;42.30;101133.69;4997970;28;45437;-76
2023/07/02 09:13:07;;;;;;;;;24.67;20.00;;;;;25.42;40.48;101113.06;4996951;28;45398;-76
2023/07/02 09:15:39;;;;;;;;;17.67;14.33;;;;;25.38;42.65;101118.66;4993898;28;46481;-75
2023/07/02 09:18:34;;;;;;;;;23.75;19.50;;;;;25.23;43.02;101136.22;4993258;28;47995;-76
2023/07/02 09:21:00;;;;;;;;;25.67;20.33;;;;;24.97;43.21;101116.25;4973793;28;45593;-77
2023/07/02 09:23:35;;;;;;;;;23.33;21.33;;;;;24.64;43.31;101125.34;4979923;28;45511;-76
2023/07/02 09:26:01;;;;;;;;;19.33;17.33;;;;;24.41;41.93;101129.56;4998479;28;45458;-77
2023/07/02 09:28:26;;;;;;;;;22.00;19.00;;;;;23.95;42.65;101084.91;4992595;28;46067;-76
2023/07/02 09:30:55;;;;;;;;;23.00;19.33;;;;;24.00;43.88;101127.97;4998588;28;45322;-75
2023/07/02 09:33:25;;;;;;;;;20.33;18.67;;;;;23.89;44.20;101133.69;4974487;28;45500;-75
2023/07/02 09:35:51;;;;;;;;;24.00;21.33;;;;;23.79;44.13;101130.31;4998221;28;45524;-75
2023/07/02 09:38:21;;;;;;;;;20.33;16.00;;;;;23.58;43.12;101101.09;4975466;28;45358;-75
2023/07/02 09:40:52;;;;;;;;;20.67;17.67;;;;;23.73;44.31;101125.06;4997551;28;45439;-76
2023/07/02 09:43:19;;;;;;;;;25.67;17.00;;;;;23.86;43.47;101096.84;4975237;28;47344;-75
2023/07/02 09:45:46;;;;;;;;;27.33;20.00;;;;;24.07;42.85;101127.78;4997916;28;45258;-76
2023/07/02 09:48:15;;;;;;;;;19.00;16.33;;;;;23.80;42.63;101093.38;4994286;28;46599;-75
2023/07/02 09:50:45;;;;;;;;;17.67;15.00;;;;;24.12;42.11;101119.56;4995600;28;45381;-75
2023/07/02 09:53:11;;;;;;;;;27.00;20.00;;;;;24.52;41.52;101111.25;4989498;28;45344;-75
2023/07/02 09:55:38;;;;;;;;;17.00;14.00;;;;;25.07;42.14;101107.88;4997773;28;45719;-76
2023/07/02 09:58:04;;;;;;;;;23.33;18.67;;;;;25.23;40.13;101109.16;4994853;28;45250;-76
2023/07/02 10:00:30;;;;;;;;;14.00;13.00;;;;;25.42;41.65;101123.00;4997846;28;45231;-77
2023/07/02 10:02:55;;;;;;;;;17.67;15.67;;;;;25.35;40.92;101114.22;4996405;28;45495;-77
2023/07/02 10:05:28;;;;;;;;;18.33;17.33;;;;;25.29;39.39;101130.66;4997272;28;45360;-79
2023/07/02 10:07:53;;;;;;;;;17.00;15.67;;;;;25.22;39.32;101134.47;4996532;28;46563;-78
2023/07/02 10:10:29;;;;;;;;;20.33;17.00;;;;;25.06;41.12;101119.59;4997296;28;45280;-77
2023/07/02 10:12:55;;;;;;;;;17.67;16.00;;;;;24.86;40.73;101120.22;4999264;28;45597;-77
2023/07/02 10:15:28;;;;;;;;;17.67;14.00;;;;;24.70;39.72;101130.59;5000987;28;45290;-78
2023/07/02 10:18:02;;;;;;;;;20.33;19.00;;;;;24.50;40.83;101104.13;4980906;28;45585;-78
2023/07/02 10:20:39;;;;;;;;;18.00;16.00;;;;;24.48;41.50;101136.63;4998591;28;45334;-79
2023/07/02 10:23:06;;;;;;;;;26.33;18.33;;;;;24.32;40.25;101132.53;5000278;28;45368;-79
2023/07/02 10:25:34;;;;;;;;;18.67;17.00;;;;;24.23;41.75;101122.88;5001714;28;45358;-79
2023/07/02 10:28:01;;;;;;;;;17.33;16.00;;;;;24.05;39.78;101094.50;5000178;28;45457;-78
2023/07/02 10:30:35;;;;;;;;;20.67;17.00;;;;;24.63;40.15;101132.59;4978743;28;45399;-77
2023/07/02 10:33:12;;;;;;;;;18.67;16.67;;;;;24.88;39.38;101119.25;4999041;28;45354;-77
2023/07/02 10:35:38;;;;;;;;;20.33;16.33;;;;;25.07;38.45;101118.69;4990050;28;46082;-77
2023/07/02 10:38:06;;;;;;;;;16.67;16.67;;;;;25.12;37.52;101105.88;4998404;28;46726;-78
2023/07/02 10:40:33;;;;;;;;;9.00;8.00;;;;;25.09;37.69;101092.47;4991636;28;45529;-78
2023/07/02 10:42:58;;;;;;;;;20.00;16.33;;;;;25.25;39.10;101120.84;4997757;28;45414;-78
2023/07/02 10:45:34;;;;;;;;;15.33;14.33;;;;;25.28;39.68;101117.16;4998778;28;45529;-78
2023/07/02 10:48:08;;;;;;;;;21.00;17.67;;;;;25.11;39.02;101098.72;4998122;28;46538;-79
2023/07/02 10:50:33;;;;;;;;;20.33;18.00;;;;;25.18;39.16;101084.09;4997255;28;45325;-79
2023/07/02 10:52:59;;;;;;;;;16.00;14.33;;;;;25.66;37.76;101097.84;4995354;28;45377;-78
2023/07/02 10:55:27;;;;;;;;;19.25;15.75;;;;;25.96;37.02;101094.16;4975759;28;45378;-79
2023/07/02 10:58:06;;;;;;;;;18.75;16.75;;;;;26.42;37.68;101090.69;4980822;28;47122;-76
2023/07/02 11:00:32;;;;;;;;;20.00;18.00;;;;;26.67;37.72;101090.69;4997134;28;45373;-78
2023/07/02 11:02:58;;;;;;;;;21.50;16.50;;;;;26.78;37.19;101103.84;4980937;28;45308;-78
2023/07/02 11:05:24;;;;;;;;;20.50;18.75;;;;;26.99;35.26;101100.28;4996829;28;45402;-75
2023/07/02 11:07:56;;;;;;;;;16.75;16.00;;;;;27.16;34.75;101112.34;4998678;28;45712;-77